Terminal Aerodrome Forecast
Issued by NWS Wichita, KS

Home | Current Version | Previous Version | Text Only | Print | Product List | Glossary On
Versions: 1 2 3 4 5 6 7 8 9 10 11 12 13 14 15 16
000
FTUS43 KICT 210800 AAA
TAFICT
TAF AMD
KICT 210819Z 2108/2206 00000KT P6SM SKC
     FM211100 09005KT 4SM BR SKC
      TEMPO 2111/2114 2SM BR SCT020
     FM211400 11007KT 5SM BR SCT035
     FM211500 15009KT P6SM BKN035=

USA.gov is the U.S. government's official web portal to all federal, state and local government web resources and services.